Auance, South Dakota
Current Conditions -  °F | °C
As of 7:55 AM on Friday 19 Dec 2014 (Local Time) from KPHP Reporting Station
Clear Clear  
Wind Chill: 15°   Ceiling: Unl
Heat Index: 25°   Visibility: 10mi
Dew Point: 20°   Wind: 10mph
Humidity: 81%   Direction: 280°W
Pressure: 30"   Gusts: NA
Location:  44.8511°N, 102.128°W
Report Text: KPHP 191455Z AUTO 28009KT 10SM CLR M04/M07 A3000 RMK AO2 SLP188 T10391067 50002
Loading
Personal Weather Stations






























Interactive Weather Map New forecast layout! Learn more

10-Day Weather Forecast

Advertisements
Track Severe Weather on mobile